sensor_id;sensor_type;location;lat;lon;timestamp;P1;durP1;ratioP1;P2;durP2;ratioP2
2129;SDS011;1071;52.544;13.374;2023-05-29T00:00:22;8.37;;;4.23;;
2129;SDS011;1071;52.544;13.374;2023-05-29T00:02:50;9.80;;;8.17;;
2129;SDS011;1071;52.544;13.374;2023-05-29T00:05:18;12.73;;;5.20;;
2129;SDS011;1071;52.544;13.374;2023-05-29T00:07:45;10.07;;;4.50;;
2129;SDS011;1071;52.544;13.374;2023-05-29T00:10:14;7.57;;;4.57;;
2129;SDS011;1071;52.544;13.374;2023-05-29T00:12:42;7.70;;;4.97;;
2129;SDS011;1071;52.544;13.374;2023-05-29T00:15:09;7.23;;;4.33;;
2129;SDS011;1071;52.544;13.374;2023-05-29T00:17:37;7.80;;;5.07;;
2129;SDS011;1071;52.544;13.374;2023-05-29T00:20:06;8.03;;;4.77;;
2129;SDS011;1071;52.544;13.374;2023-05-29T00:22:35;6.23;;;4.23;;
2129;SDS011;1071;52.544;13.374;2023-05-29T00:25:03;6.80;;;4.03;;
2129;SDS011;1071;52.544;13.374;2023-05-29T00:27:33;7.20;;;4.70;;
2129;SDS011;1071;52.544;13.374;2023-05-29T00:30:00;7.20;;;4.70;;
2129;SDS011;1071;52.544;13.374;2023-05-29T00:32:27;7.50;;;4.27;;
2129;SDS011;1071;52.544;13.374;2023-05-29T00:34:54;7.03;;;4.10;;
2129;SDS011;1071;52.544;13.374;2023-05-29T00:37:21;5.73;;;4.50;;
2129;SDS011;1071;52.544;13.374;2023-05-29T00:39:50;6.07;;;4.50;;
2129;SDS011;1071;52.544;13.374;2023-05-29T00:42:17;5.93;;;4.63;;
2129;SDS011;1071;52.544;13.374;2023-05-29T00:44:44;4.37;;;3.53;;
2129;SDS011;1071;52.544;13.374;2023-05-29T00:47:14;10.20;;;6.00;;
2129;SDS011;1071;52.544;13.374;2023-05-29T00:49:42;9.27;;;5.63;;
2129;SDS011;1071;52.544;13.374;2023-05-29T00:52:12;9.80;;;6.67;;
2129;SDS011;1071;52.544;13.374;2023-05-29T00:54:42;8.00;;;5.50;;
2129;SDS011;1071;52.544;13.374;2023-05-29T00:57:14;7.53;;;5.43;;
2129;SDS011;1071;52.544;13.374;2023-05-29T00:59:43;6.20;;;5.70;;
2129;SDS011;1071;52.544;13.374;2023-05-29T01:02:11;7.40;;;5.83;;
2129;SDS011;1071;52.544;13.374;2023-05-29T01:04:41;6.83;;;5.23;;
2129;SDS011;1071;52.544;13.374;2023-05-29T01:07:10;10.53;;;6.03;;
2129;SDS011;1071;52.544;13.374;2023-05-29T01:09:37;10.33;;;7.17;;
2129;SDS011;1071;52.544;13.374;2023-05-29T01:12:08;10.20;;;6.23;;
2129;SDS011;1071;52.544;13.374;2023-05-29T01:14:51;10.77;;;5.97;;
2129;SDS011;1071;52.544;13.374;2023-05-29T01:17:35;8.23;;;6.00;;
2129;SDS011;1071;52.544;13.374;2023-05-29T01:20:11;8.70;;;6.30;;
2129;SDS011;1071;52.544;13.374;2023-05-29T01:23:06;9.53;;;5.30;;
2129;SDS011;1071;52.544;13.374;2023-05-29T01:26:11;8.50;;;5.87;;
2129;SDS011;1071;52.544;13.374;2023-05-29T01:28:51;8.30;;;5.20;;
2129;SDS011;1071;52.544;13.374;2023-05-29T01:31:53;12.30;;;6.47;;
2129;SDS011;1071;52.544;13.374;2023-05-29T01:34:37;6.07;;;5.47;;
2129;SDS011;1071;52.544;13.374;2023-05-29T01:37:23;8.73;;;6.20;;
2129;SDS011;1071;52.544;13.374;2023-05-29T01:39:50;7.57;;;5.63;;
2129;SDS011;1071;52.544;13.374;2023-05-29T01:42:29;9.83;;;6.87;;
2129;SDS011;1071;52.544;13.374;2023-05-29T01:44:58;8.37;;;5.87;;
2129;SDS011;1071;52.544;13.374;2023-05-29T01:47:25;8.13;;;5.53;;
2129;SDS011;1071;52.544;13.374;2023-05-29T01:49:52;8.17;;;7.37;;
2129;SDS011;1071;52.544;13.374;2023-05-29T01:52:21;7.93;;;5.97;;
2129;SDS011;1071;52.544;13.374;2023-05-29T01:54:50;8.00;;;4.87;;
2129;SDS011;1071;52.544;13.374;2023-05-29T01:57:17;8.93;;;5.13;;
2129;SDS011;1071;52.544;13.374;2023-05-29T02:00:07;10.90;;;6.87;;
2129;SDS011;1071;52.544;13.374;2023-05-29T02:02:36;10.63;;;7.10;;
2129;SDS011;1071;52.544;13.374;2023-05-29T02:05:04;7.63;;;6.60;;
2129;SDS011;1071;52.544;13.374;2023-05-29T02:07:31;10.07;;;6.30;;
2129;SDS011;1071;52.544;13.374;2023-05-29T02:10:06;11.43;;;6.40;;
2129;SDS011;1071;52.544;13.374;2023-05-29T02:12:34;12.13;;;6.80;;
2129;SDS011;1071;52.544;13.374;2023-05-29T02:15:01;6.73;;;5.23;;
2129;SDS011;1071;52.544;13.374;2023-05-29T02:17:29;8.40;;;6.03;;
2129;SDS011;1071;52.544;13.374;2023-05-29T02:19:56;6.23;;;4.40;;
2129;SDS011;1071;52.544;13.374;2023-05-29T02:22:23;11.87;;;7.50;;
2129;SDS011;1071;52.544;13.374;2023-05-29T02:24:50;6.67;;;5.00;;
2129;SDS011;1071;52.544;13.374;2023-05-29T02:27:17;6.70;;;5.07;;
2129;SDS011;1071;52.544;13.374;2023-05-29T02:29:44;10.60;;;5.40;;
2129;SDS011;1071;52.544;13.374;2023-05-29T02:32:29;9.43;;;5.70;;
2129;SDS011;1071;52.544;13.374;2023-05-29T02:34:57;7.00;;;4.87;;
2129;SDS011;1071;52.544;13.374;2023-05-29T02:37:24;7.03;;;5.23;;
2129;SDS011;1071;52.544;13.374;2023-05-29T02:39:51;9.23;;;6.07;;
2129;SDS011;1071;52.544;13.374;2023-05-29T02:42:18;11.63;;;6.10;;
2129;SDS011;1071;52.544;13.374;2023-05-29T02:44:45;6.83;;;5.40;;
2129;SDS011;1071;52.544;13.374;2023-05-29T02:47:12;7.87;;;5.93;;
2129;SDS011;1071;52.544;13.374;2023-05-29T02:49:40;6.87;;;6.17;;
2129;SDS011;1071;52.544;13.374;2023-05-29T02:52:07;7.47;;;5.97;;
2129;SDS011;1071;52.544;13.374;2023-05-29T02:54:34;8.17;;;6.87;;
2129;SDS011;1071;52.544;13.374;2023-05-29T02:57:01;8.20;;;6.67;;
2129;SDS011;1071;52.544;13.374;2023-05-29T02:59:29;11.40;;;6.97;;
2129;SDS011;1071;52.544;13.374;2023-05-29T03:01:57;7.07;;;5.10;;
2129;SDS011;1071;52.544;13.374;2023-05-29T03:04:24;7.40;;;4.83;;
2129;SDS011;1071;52.544;13.374;2023-05-29T03:06:52;6.80;;;5.17;;
2129;SDS011;1071;52.544;13.374;2023-05-29T03:09:19;9.40;;;6.23;;
2129;SDS011;1071;52.544;13.374;2023-05-29T03:11:46;9.40;;;6.03;;
2129;SDS011;1071;52.544;13.374;2023-05-29T03:14:14;9.27;;;6.10;;
2129;SDS011;1071;52.544;13.374;2023-05-29T03:16:42;8.30;;;7.00;;
2129;SDS011;1071;52.544;13.374;2023-05-29T03:19:09;7.90;;;5.97;;
2129;SDS011;1071;52.544;13.374;2023-05-29T03:21:36;7.17;;;4.83;;
2129;SDS011;1071;52.544;13.374;2023-05-29T03:24:05;5.90;;;5.30;;
2129;SDS011;1071;52.544;13.374;2023-05-29T03:26:32;5.70;;;5.00;;
2129;SDS011;1071;52.544;13.374;2023-05-29T03:29:01;10.40;;;6.00;;
2129;SDS011;1071;52.544;13.374;2023-05-29T03:31:29;6.83;;;4.80;;
2129;SDS011;1071;52.544;13.374;2023-05-29T03:33:57;7.40;;;5.27;;
2129;SDS011;1071;52.544;13.374;2023-05-29T03:36:24;5.97;;;4.87;;
2129;SDS011;1071;52.544;13.374;2023-05-29T03:38:52;6.43;;;5.80;;
2129;SDS011;1071;52.544;13.374;2023-05-29T03:41:31;6.10;;;4.70;;
2129;SDS011;1071;52.544;13.374;2023-05-29T03:43:59;6.60;;;5.90;;
2129;SDS011;1071;52.544;13.374;2023-05-29T03:46:26;8.57;;;5.93;;
2129;SDS011;1071;52.544;13.374;2023-05-29T03:48:53;9.83;;;6.93;;
2129;SDS011;1071;52.544;13.374;2023-05-29T03:51:20;7.27;;;5.83;;
2129;SDS011;1071;52.544;13.374;2023-05-29T03:53:47;9.67;;;8.00;;
2129;SDS011;1071;52.544;13.374;2023-05-29T03:56:14;10.07;;;7.57;;
2129;SDS011;1071;52.544;13.374;2023-05-29T03:58:43;14.93;;;8.93;;
2129;SDS011;1071;52.544;13.374;2023-05-29T04:01:10;7.50;;;5.60;;
2129;SDS011;1071;52.544;13.374;2023-05-29T04:03:37;7.57;;;6.17;;
2129;SDS011;1071;52.544;13.374;2023-05-29T04:06:04;9.47;;;6.60;;
2129;SDS011;1071;52.544;13.374;2023-05-29T04:08:31;7.13;;;4.97;;
2129;SDS011;1071;52.544;13.374;2023-05-29T04:10:58;9.90;;;5.70;;
2129;SDS011;1071;52.544;13.374;2023-05-29T04:13:26;7.23;;;5.73;;
2129;SDS011;1071;52.544;13.374;2023-05-29T04:15:54;10.57;;;6.90;;
2129;SDS011;1071;52.544;13.374;2023-05-29T04:18:24;12.47;;;5.17;;
2129;SDS011;1071;52.544;13.374;2023-05-29T04:20:51;6.97;;;4.97;;
2129;SDS011;1071;52.544;13.374;2023-05-29T04:23:18;6.60;;;5.30;;
2129;SDS011;1071;52.544;13.374;2023-05-29T04:25:45;6.27;;;4.93;;
2129;SDS011;1071;52.544;13.374;2023-05-29T04:28:15;5.70;;;4.03;;
2129;SDS011;1071;52.544;13.374;2023-05-29T04:30:42;6.97;;;4.93;;
2129;SDS011;1071;52.544;13.374;2023-05-29T04:33:11;6.73;;;4.87;;
2129;SDS011;1071;52.544;13.374;2023-05-29T04:35:40;7.13;;;5.23;;
2129;SDS011;1071;52.544;13.374;2023-05-29T04:38:08;8.67;;;5.93;;
2129;SDS011;1071;52.544;13.374;2023-05-29T04:40:36;10.07;;;7.47;;
2129;SDS011;1071;52.544;13.374;2023-05-29T04:43:05;10.70;;;5.23;;
2129;SDS011;1071;52.544;13.374;2023-05-29T04:45:36;7.70;;;6.30;;
2129;SDS011;1071;52.544;13.374;2023-05-29T04:48:04;8.57;;;5.77;;
2129;SDS011;1071;52.544;13.374;2023-05-29T04:50:34;7.47;;;5.57;;
2129;SDS011;1071;52.544;13.374;2023-05-29T04:53:03;9.13;;;6.80;;
2129;SDS011;1071;52.544;13.374;2023-05-29T04:55:30;7.07;;;5.60;;
2129;SDS011;1071;52.544;13.374;2023-05-29T04:57:57;7.90;;;5.43;;
2129;SDS011;1071;52.544;13.374;2023-05-29T05:00:25;9.03;;;5.97;;
2129;SDS011;1071;52.544;13.374;2023-05-29T05:02:52;6.97;;;5.20;;
2129;SDS011;1071;52.544;13.374;2023-05-29T05:05:19;8.23;;;6.53;;
2129;SDS011;1071;52.544;13.374;2023-05-29T05:07:49;7.10;;;4.00;;
2129;SDS011;1071;52.544;13.374;2023-05-29T05:10:15;8.67;;;6.43;;
2129;SDS011;1071;52.544;13.374;2023-05-29T05:12:43;8.20;;;6.23;;
2129;SDS011;1071;52.544;13.374;2023-05-29T05:15:10;6.90;;;5.97;;
2129;SDS011;1071;52.544;13.374;2023-05-29T05:17:40;5.80;;;5.20;;
2129;SDS011;1071;52.544;13.374;2023-05-29T05:20:07;7.67;;;4.57;;
2129;SDS011;1071;52.544;13.374;2023-05-29T05:22:43;4.33;;;3.93;;
2129;SDS011;1071;52.544;13.374;2023-05-29T05:25:11;8.53;;;5.23;;
2129;SDS011;1071;52.544;13.374;2023-05-29T05:27:39;4.33;;;3.50;;
2129;SDS011;1071;52.544;13.374;2023-05-29T05:30:06;5.83;;;4.77;;
2129;SDS011;1071;52.544;13.374;2023-05-29T05:32:34;5.47;;;4.93;;
2129;SDS011;1071;52.544;13.374;2023-05-29T05:35:01;4.67;;;4.17;;
2129;SDS011;1071;52.544;13.374;2023-05-29T05:37:29;5.30;;;4.07;;
2129;SDS011;1071;52.544;13.374;2023-05-29T05:39:56;9.10;;;5.23;;
2129;SDS011;1071;52.544;13.374;2023-05-29T05:42:26;5.93;;;4.17;;
2129;SDS011;1071;52.544;13.374;2023-05-29T05:44:57;5.03;;;4.30;;
2129;SDS011;1071;52.544;13.374;2023-05-29T05:47:24;4.53;;;4.13;;
2129;SDS011;1071;52.544;13.374;2023-05-29T05:49:52;7.30;;;4.17;;
2129;SDS011;1071;52.544;13.374;2023-05-29T05:52:19;6.23;;;4.17;;
2129;SDS011;1071;52.544;13.374;2023-05-29T05:54:47;6.33;;;4.70;;
2129;SDS011;1071;52.544;13.374;2023-05-29T05:57:14;5.03;;;4.30;;
2129;SDS011;1071;52.544;13.374;2023-05-29T05:59:43;4.23;;;3.70;;
2129;SDS011;1071;52.544;13.374;2023-05-29T06:02:11;3.93;;;3.40;;
2129;SDS011;1071;52.544;13.374;2023-05-29T06:04:38;5.83;;;4.37;;
2129;SDS011;1071;52.544;13.374;2023-05-29T06:07:06;3.77;;;3.43;;
2129;SDS011;1071;52.544;13.374;2023-05-29T06:09:33;4.17;;;3.50;;
2129;SDS011;1071;52.544;13.374;2023-05-29T06:12:07;3.37;;;2.70;;
2129;SDS011;1071;52.544;13.374;2023-05-29T06:14:35;4.20;;;3.80;;
2129;SDS011;1071;52.544;13.374;2023-05-29T06:17:03;3.60;;;3.30;;
2129;SDS011;1071;52.544;13.374;2023-05-29T06:19:30;6.90;;;3.33;;
2129;SDS011;1071;52.544;13.374;2023-05-29T06:21:57;4.47;;;3.00;;
2129;SDS011;1071;52.544;13.374;2023-05-29T06:24:26;3.63;;;2.93;;
2129;SDS011;1071;52.544;13.374;2023-05-29T06:26:53;5.50;;;3.60;;
2129;SDS011;1071;52.544;13.374;2023-05-29T06:29:20;3.70;;;2.80;;
2129;SDS011;1071;52.544;13.374;2023-05-29T06:31:50;3.63;;;3.30;;
2129;SDS011;1071;52.544;13.374;2023-05-29T06:34:19;4.47;;;2.80;;
2129;SDS011;1071;52.544;13.374;2023-05-29T06:36:46;3.10;;;2.80;;
2129;SDS011;1071;52.544;13.374;2023-05-29T06:39:13;5.07;;;3.40;;
2129;SDS011;1071;52.544;13.374;2023-05-29T06:41:40;3.20;;;2.80;;
2129;SDS011;1071;52.544;13.374;2023-05-29T06:44:07;5.57;;;3.93;;
2129;SDS011;1071;52.544;13.374;2023-05-29T06:46:34;8.83;;;3.80;;
2129;SDS011;1071;52.544;13.374;2023-05-29T06:49:01;3.30;;;3.00;;
2129;SDS011;1071;52.544;13.374;2023-05-29T06:51:32;3.87;;;3.47;;
2129;SDS011;1071;52.544;13.374;2023-05-29T06:54:00;5.90;;;3.90;;
2129;SDS011;1071;52.544;13.374;2023-05-29T06:56:27;3.80;;;3.00;;
2129;SDS011;1071;52.544;13.374;2023-05-29T06:58:55;3.23;;;2.93;;
2129;SDS011;1071;52.544;13.374;2023-05-29T07:01:23;4.00;;;3.60;;
2129;SDS011;1071;52.544;13.374;2023-05-29T07:03:51;4.60;;;2.73;;
2129;SDS011;1071;52.544;13.374;2023-05-29T07:06:18;4.23;;;3.60;;
2129;SDS011;1071;52.544;13.374;2023-05-29T07:08:47;2.70;;;2.50;;
2129;SDS011;1071;52.544;13.374;2023-05-29T07:11:15;3.53;;;3.03;;
2129;SDS011;1071;52.544;13.374;2023-05-29T07:13:44;3.27;;;2.97;;
2129;SDS011;1071;52.544;13.374;2023-05-29T07:16:11;5.00;;;3.70;;
2129;SDS011;1071;52.544;13.374;2023-05-29T07:18:38;3.90;;;3.40;;
2129;SDS011;1071;52.544;13.374;2023-05-29T07:21:05;3.10;;;2.80;;
2129;SDS011;1071;52.544;13.374;2023-05-29T07:23:32;2.70;;;2.50;;
2129;SDS011;1071;52.544;13.374;2023-05-29T07:26:01;2.47;;;2.27;;
2129;SDS011;1071;52.544;13.374;2023-05-29T07:28:32;3.83;;;3.47;;
2129;SDS011;1071;52.544;13.374;2023-05-29T07:31:03;4.70;;;4.30;;
2129;SDS011;1071;52.544;13.374;2023-05-29T07:33:30;4.50;;;3.63;;
2129;SDS011;1071;52.544;13.374;2023-05-29T07:35:58;4.27;;;3.77;;
2129;SDS011;1071;52.544;13.374;2023-05-29T07:38:25;3.83;;;3.17;;
2129;SDS011;1071;52.544;13.374;2023-05-29T07:40:52;2.80;;;2.13;;
2129;SDS011;1071;52.544;13.374;2023-05-29T07:43:20;3.53;;;3.20;;
2129;SDS011;1071;52.544;13.374;2023-05-29T07:45:47;3.27;;;2.97;;
2129;SDS011;1071;52.544;13.374;2023-05-29T07:48:14;2.93;;;2.73;;
2129;SDS011;1071;52.544;13.374;2023-05-29T07:50:46;3.03;;;2.70;;
2129;SDS011;1071;52.544;13.374;2023-05-29T07:53:17;4.00;;;3.37;;
2129;SDS011;1071;52.544;13.374;2023-05-29T07:55:44;4.97;;;4.00;;
2129;SDS011;1071;52.544;13.374;2023-05-29T07:58:18;3.13;;;2.77;;
2129;SDS011;1071;52.544;13.374;2023-05-29T08:00:47;6.07;;;3.17;;
2129;SDS011;1071;52.544;13.374;2023-05-29T08:03:24;2.50;;;2.30;;
2129;SDS011;1071;52.544;13.374;2023-05-29T08:05:52;4.27;;;2.67;;
2129;SDS011;1071;52.544;13.374;2023-05-29T08:08:19;2.27;;;2.07;;
2129;SDS011;1071;52.544;13.374;2023-05-29T08:10:46;6.00;;;3.47;;
2129;SDS011;1071;52.544;13.374;2023-05-29T08:13:13;4.77;;;3.30;;
2129;SDS011;1071;52.544;13.374;2023-05-29T08:15:41;2.63;;;2.40;;
2129;SDS011;1071;52.544;13.374;2023-05-29T08:18:08;4.40;;;2.73;;
2129;SDS011;1071;52.544;13.374;2023-05-29T08:20:35;4.23;;;3.83;;
2129;SDS011;1071;52.544;13.374;2023-05-29T08:23:02;4.00;;;3.70;;
2129;SDS011;1071;52.544;13.374;2023-05-29T08:25:29;2.67;;;2.40;;
2129;SDS011;1071;52.544;13.374;2023-05-29T08:27:57;4.50;;;3.47;;
2129;SDS011;1071;52.544;13.374;2023-05-29T08:30:27;3.57;;;3.27;;
2129;SDS011;1071;52.544;13.374;2023-05-29T08:32:58;3.30;;;2.63;;
2129;SDS011;1071;52.544;13.374;2023-05-29T08:35:25;3.03;;;2.50;;
2129;SDS011;1071;52.544;13.374;2023-05-29T08:37:52;2.80;;;2.60;;
2129;SDS011;1071;52.544;13.374;2023-05-29T08:40:19;6.37;;;3.10;;
2129;SDS011;1071;52.544;13.374;2023-05-29T08:42:48;2.77;;;2.57;;
2129;SDS011;1071;52.544;13.374;2023-05-29T08:45:36;3.20;;;2.60;;
2129;SDS011;1071;52.544;13.374;2023-05-29T08:48:10;3.10;;;2.80;;
2129;SDS011;1071;52.544;13.374;2023-05-29T08:50:39;3.50;;;2.97;;
2129;SDS011;1071;52.544;13.374;2023-05-29T08:53:12;3.47;;;2.93;;
2129;SDS011;1071;52.544;13.374;2023-05-29T08:55:40;3.93;;;3.53;;
2129;SDS011;1071;52.544;13.374;2023-05-29T08:58:07;4.53;;;3.17;;
2129;SDS011;1071;52.544;13.374;2023-05-29T09:00:37;4.03;;;3.63;;
2129;SDS011;1071;52.544;13.374;2023-05-29T09:03:06;4.53;;;4.10;;
2129;SDS011;1071;52.544;13.374;2023-05-29T09:05:35;4.17;;;3.00;;
2129;SDS011;1071;52.544;13.374;2023-05-29T09:10:51;9.53;;;7.90;;
2129;SDS011;1071;52.544;13.374;2023-05-29T09:13:18;5.47;;;3.90;;
2129;SDS011;1071;52.544;13.374;2023-05-29T09:15:45;3.70;;;2.87;;
2129;SDS011;1071;52.544;13.374;2023-05-29T09:18:16;4.00;;;3.30;;
2129;SDS011;1071;52.544;13.374;2023-05-29T09:20:45;4.60;;;4.20;;
2129;SDS011;1071;52.544;13.374;2023-05-29T09:23:12;4.00;;;3.33;;
2129;SDS011;1071;52.544;13.374;2023-05-29T09:25:44;3.30;;;2.90;;
2129;SDS011;1071;52.544;13.374;2023-05-29T09:28:19;4.03;;;3.40;;
2129;SDS011;1071;52.544;13.374;2023-05-29T09:30:49;5.97;;;4.10;;
2129;SDS011;1071;52.544;13.374;2023-05-29T09:33:16;6.27;;;5.30;;
2129;SDS011;1071;52.544;13.374;2023-05-29T09:35:45;6.57;;;5.47;;
2129;SDS011;1071;52.544;13.374;2023-05-29T09:38:13;5.07;;;4.27;;
2129;SDS011;1071;52.544;13.374;2023-05-29T09:40:42;3.03;;;2.70;;
2129;SDS011;1071;52.544;13.374;2023-05-29T09:43:11;4.00;;;3.37;;
2129;SDS011;1071;52.544;13.374;2023-05-29T09:45:39;6.70;;;4.30;;
2129;SDS011;1071;52.544;13.374;2023-05-29T09:48:07;4.80;;;4.40;;
2129;SDS011;1071;52.544;13.374;2023-05-29T09:50:38;5.70;;;4.17;;
2129;SDS011;1071;52.544;13.374;2023-05-29T09:53:16;5.40;;;4.30;;
2129;SDS011;1071;52.544;13.374;2023-05-29T09:55:47;5.57;;;4.83;;
2129;SDS011;1071;52.544;13.374;2023-05-29T09:58:15;6.90;;;4.43;;
2129;SDS011;1071;52.544;13.374;2023-05-29T10:00:44;4.50;;;4.13;;
2129;SDS011;1071;52.544;13.374;2023-05-29T10:03:14;5.70;;;3.23;;
2129;SDS011;1071;52.544;13.374;2023-05-29T10:05:46;5.87;;;4.00;;
2129;SDS011;1071;52.544;13.374;2023-05-29T10:08:17;4.03;;;3.73;;
2129;SDS011;1071;52.544;13.374;2023-05-29T10:10:46;4.07;;;3.47;;
2129;SDS011;1071;52.544;13.374;2023-05-29T10:13:14;3.20;;;2.90;;
2129;SDS011;1071;52.544;13.374;2023-05-29T10:15:44;5.10;;;4.60;;
2129;SDS011;1071;52.544;13.374;2023-05-29T10:18:16;5.83;;;3.70;;
2129;SDS011;1071;52.544;13.374;2023-05-29T10:20:47;5.17;;;4.23;;
2129;SDS011;1071;52.544;13.374;2023-05-29T10:23:18;3.63;;;3.33;;
2129;SDS011;1071;52.544;13.374;2023-05-29T10:25:49;4.60;;;3.47;;
2129;SDS011;1071;52.544;13.374;2023-05-29T10:28:19;4.60;;;4.20;;
2129;SDS011;1071;52.544;13.374;2023-05-29T10:30:49;3.20;;;2.73;;
2129;SDS011;1071;52.544;13.374;2023-05-29T10:33:25;4.30;;;3.90;;
2129;SDS011;1071;52.544;13.374;2023-05-29T10:36:06;3.73;;;3.43;;
2129;SDS011;1071;52.544;13.374;2023-05-29T10:38:44;4.60;;;3.90;;
2129;SDS011;1071;52.544;13.374;2023-05-29T10:41:31;4.10;;;3.70;;
2129;SDS011;1071;52.544;13.374;2023-05-29T10:43:59;5.90;;;3.17;;
2129;SDS011;1071;52.544;13.374;2023-05-29T10:49:34;5.83;;;4.07;;
2129;SDS011;1071;52.544;13.374;2023-05-29T10:52:03;5.90;;;3.50;;
2129;SDS011;1071;52.544;13.374;2023-05-29T10:54:41;5.07;;;4.00;;
2129;SDS011;1071;52.544;13.374;2023-05-29T10:57:18;4.10;;;3.27;;
2129;SDS011;1071;52.544;13.374;2023-05-29T10:59:47;4.00;;;3.20;;
2129;SDS011;1071;52.544;13.374;2023-05-29T11:02:24;4.10;;;3.63;;
2129;SDS011;1071;52.544;13.374;2023-05-29T11:05:03;4.93;;;3.83;;
2129;SDS011;1071;52.544;13.374;2023-05-29T11:07:32;3.60;;;3.30;;
2129;SDS011;1071;52.544;13.374;2023-05-29T11:10:11;6.30;;;5.70;;
2129;SDS011;1071;52.544;13.374;2023-05-29T11:12:58;4.33;;;3.87;;
2129;SDS011;1071;52.544;13.374;2023-05-29T11:15:34;4.80;;;4.40;;
2129;SDS011;1071;52.544;13.374;2023-05-29T11:18:07;7.30;;;5.50;;
2129;SDS011;1071;52.544;13.374;2023-05-29T11:20:42;4.63;;;3.97;;
2129;SDS011;1071;52.544;13.374;2023-05-29T11:23:17;4.40;;;3.87;;
2129;SDS011;1071;52.544;13.374;2023-05-29T11:25:46;3.53;;;3.23;;
2129;SDS011;1071;52.544;13.374;2023-05-29T11:28:13;6.10;;;3.27;;
2129;SDS011;1071;52.544;13.374;2023-05-29T11:30:44;4.63;;;3.10;;
2129;SDS011;1071;52.544;13.374;2023-05-29T11:33:15;4.60;;;2.90;;
2129;SDS011;1071;52.544;13.374;2023-05-29T11:35:50;4.50;;;3.53;;
2129;SDS011;1071;52.544;13.374;2023-05-29T11:38:22;4.37;;;3.97;;
2129;SDS011;1071;52.544;13.374;2023-05-29T11:40:51;5.00;;;4.17;;
2129;SDS011;1071;52.544;13.374;2023-05-29T11:43:21;5.20;;;3.77;;
2129;SDS011;1071;52.544;13.374;2023-05-29T11:45:51;4.13;;;3.70;;
2129;SDS011;1071;52.544;13.374;2023-05-29T11:48:46;3.80;;;3.50;;
2129;SDS011;1071;52.544;13.374;2023-05-29T11:51:15;3.97;;;3.67;;
2129;SDS011;1071;52.544;13.374;2023-05-29T11:53:46;4.00;;;3.63;;
2129;SDS011;1071;52.544;13.374;2023-05-29T11:56:15;3.93;;;3.30;;
2129;SDS011;1071;52.544;13.374;2023-05-29T11:58:42;3.40;;;3.10;;
2129;SDS011;1071;52.544;13.374;2023-05-29T12:01:11;7.10;;;3.20;;
2129;SDS011;1071;52.544;13.374;2023-05-29T12:03:48;3.97;;;3.40;;
2129;SDS011;1071;52.544;13.374;2023-05-29T12:06:16;3.53;;;2.93;;
2129;SDS011;1071;52.544;13.374;2023-05-29T12:08:57;3.30;;;2.73;;
2129;SDS011;1071;52.544;13.374;2023-05-29T12:11:32;5.50;;;4.90;;
2129;SDS011;1071;52.544;13.374;2023-05-29T12:14:01;5.33;;;3.60;;
2129;SDS011;1071;52.544;13.374;2023-05-29T12:16:28;6.40;;;3.90;;
2129;SDS011;1071;52.544;13.374;2023-05-29T12:18:57;5.10;;;3.83;;
2129;SDS011;1071;52.544;13.374;2023-05-29T12:21:24;6.10;;;4.07;;
2129;SDS011;1071;52.544;13.374;2023-05-29T12:23:54;5.67;;;4.40;;
2129;SDS011;1071;52.544;13.374;2023-05-29T12:26:22;5.07;;;3.67;;
2129;SDS011;1071;52.544;13.374;2023-05-29T12:28:54;4.77;;;3.10;;
2129;SDS011;1071;52.544;13.374;2023-05-29T12:31:27;5.30;;;4.30;;
2129;SDS011;1071;52.544;13.374;2023-05-29T12:33:59;5.40;;;4.90;;
2129;SDS011;1071;52.544;13.374;2023-05-29T12:36:35;4.80;;;4.37;;
2129;SDS011;1071;52.544;13.374;2023-05-29T12:39:13;7.13;;;3.37;;
2129;SDS011;1071;52.544;13.374;2023-05-29T12:41:40;6.17;;;4.20;;
2129;SDS011;1071;52.544;13.374;2023-05-29T12:44:08;3.37;;;2.80;;
2129;SDS011;1071;52.544;13.374;2023-05-29T12:46:38;4.93;;;3.40;;
2129;SDS011;1071;52.544;13.374;2023-05-29T12:49:11;4.20;;;3.17;;
2129;SDS011;1071;52.544;13.374;2023-05-29T12:51:42;4.60;;;3.23;;
2129;SDS011;1071;52.544;13.374;2023-05-29T12:54:10;4.03;;;3.03;;
2129;SDS011;1071;52.544;13.374;2023-05-29T12:56:37;2.83;;;2.63;;
2129;SDS011;1071;52.544;13.374;2023-05-29T12:59:09;3.57;;;3.17;;
2129;SDS011;1071;52.544;13.374;2023-05-29T13:01:37;4.30;;;3.50;;
2129;SDS011;1071;52.544;13.374;2023-05-29T13:04:05;3.80;;;3.03;;
2129;SDS011;1071;52.544;13.374;2023-05-29T13:06:33;3.50;;;2.93;;
2129;SDS011;1071;52.544;13.374;2023-05-29T13:09:03;4.33;;;3.37;;
2129;SDS011;1071;52.544;13.374;2023-05-29T13:11:47;2.87;;;2.60;;
2129;SDS011;1071;52.544;13.374;2023-05-29T13:14:16;5.00;;;3.40;;
2129;SDS011;1071;52.544;13.374;2023-05-29T13:16:43;3.33;;;2.87;;
2129;SDS011;1071;52.544;13.374;2023-05-29T13:19:10;3.00;;;2.80;;
2129;SDS011;1071;52.544;13.374;2023-05-29T13:21:40;2.60;;;2.40;;
2129;SDS011;1071;52.544;13.374;2023-05-29T13:24:14;5.00;;;3.30;;
2129;SDS011;1071;52.544;13.374;2023-05-29T13:26:49;3.63;;;2.77;;
2129;SDS011;1071;52.544;13.374;2023-05-29T13:29:18;6.60;;;3.40;;
2129;SDS011;1071;52.544;13.374;2023-05-29T13:31:47;4.80;;;3.07;;
2129;SDS011;1071;52.544;13.374;2023-05-29T13:34:16;6.20;;;4.93;;
2129;SDS011;1071;52.544;13.374;2023-05-29T13:36:44;4.50;;;4.10;;
2129;SDS011;1071;52.544;13.374;2023-05-29T13:39:11;4.03;;;3.63;;
2129;SDS011;1071;52.544;13.374;2023-05-29T13:41:38;9.07;;;4.67;;
2129;SDS011;1071;52.544;13.374;2023-05-29T13:44:08;5.00;;;4.60;;
2129;SDS011;1071;52.544;13.374;2023-05-29T13:46:38;3.50;;;2.90;;
2129;SDS011;1071;52.544;13.374;2023-05-29T13:49:07;3.57;;;2.90;;
2129;SDS011;1071;52.544;13.374;2023-05-29T13:51:34;3.33;;;2.63;;
2129;SDS011;1071;52.544;13.374;2023-05-29T13:54:01;3.60;;;3.30;;
2129;SDS011;1071;52.544;13.374;2023-05-29T13:56:37;4.60;;;3.57;;
2129;SDS011;1071;52.544;13.374;2023-05-29T13:59:07;4.63;;;4.13;;
2129;SDS011;1071;52.544;13.374;2023-05-29T14:01:34;7.20;;;6.27;;
2129;SDS011;1071;52.544;13.374;2023-05-29T14:04:02;10.70;;;8.13;;
2129;SDS011;1071;52.544;13.374;2023-05-29T14:06:29;10.40;;;8.10;;
2129;SDS011;1071;52.544;13.374;2023-05-29T14:08:57;9.67;;;8.27;;
2129;SDS011;1071;52.544;13.374;2023-05-29T14:11:24;9.50;;;8.30;;
2129;SDS011;1071;52.544;13.374;2023-05-29T14:13:51;9.53;;;6.30;;
2129;SDS011;1071;52.544;13.374;2023-05-29T14:16:19;4.70;;;3.30;;
2129;SDS011;1071;52.544;13.374;2023-05-29T14:18:48;6.80;;;4.33;;
2129;SDS011;1071;52.544;13.374;2023-05-29T14:21:16;7.63;;;4.10;;
2129;SDS011;1071;52.544;13.374;2023-05-29T14:23:45;5.87;;;4.43;;
2129;SDS011;1071;52.544;13.374;2023-05-29T14:26:12;5.20;;;3.70;;
2129;SDS011;1071;52.544;13.374;2023-05-29T14:28:40;7.00;;;3.80;;
2129;SDS011;1071;52.544;13.374;2023-05-29T14:31:07;4.37;;;3.03;;
2129;SDS011;1071;52.544;13.374;2023-05-29T14:33:34;4.90;;;2.90;;
2129;SDS011;1071;52.544;13.374;2023-05-29T14:36:01;3.93;;;3.53;;
2129;SDS011;1071;52.544;13.374;2023-05-29T14:38:30;4.63;;;3.17;;
2129;SDS011;1071;52.544;13.374;2023-05-29T14:40:57;3.77;;;2.53;;
2129;SDS011;1071;52.544;13.374;2023-05-29T14:43:24;4.80;;;2.97;;
2129;SDS011;1071;52.544;13.374;2023-05-29T14:45:51;4.70;;;2.60;;
2129;SDS011;1071;52.544;13.374;2023-05-29T14:48:18;4.53;;;2.50;;
2129;SDS011;1071;52.544;13.374;2023-05-29T14:50:46;9.43;;;5.30;;
2129;SDS011;1071;52.544;13.374;2023-05-29T14:53:16;6.20;;;5.00;;
2129;SDS011;1071;52.544;13.374;2023-05-29T14:55:44;4.00;;;3.23;;
2129;SDS011;1071;52.544;13.374;2023-05-29T14:58:11;4.37;;;3.67;;
2129;SDS011;1071;52.544;13.374;2023-05-29T15:00:39;4.77;;;2.70;;
2129;SDS011;1071;52.544;13.374;2023-05-29T15:03:06;3.50;;;2.60;;
2129;SDS011;1071;52.544;13.374;2023-05-29T15:05:33;4.47;;;2.80;;
2129;SDS011;1071;52.544;13.374;2023-05-29T15:08:00;4.70;;;3.17;;
2129;SDS011;1071;52.544;13.374;2023-05-29T15:10:27;2.80;;;2.60;;
2129;SDS011;1071;52.544;13.374;2023-05-29T15:12:56;3.00;;;2.13;;
2129;SDS011;1071;52.544;13.374;2023-05-29T15:15:23;4.43;;;3.00;;
2129;SDS011;1071;52.544;13.374;2023-05-29T15:17:51;3.37;;;2.63;;
2129;SDS011;1071;52.544;13.374;2023-05-29T15:20:21;4.67;;;2.50;;